createdAt,value
2019-03-05T00:04:38.190Z,4.90
2019-03-05T00:09:41.806Z,5.20
2019-03-05T00:14:45.495Z,5.50
2019-03-05T00:19:49.184Z,5.20
2019-03-05T00:25:04.563Z,4.40
2019-03-05T00:30:17.034Z,4.40
2019-03-05T00:35:32.730Z,4.30
2019-03-05T00:40:54.257Z,4.50
2019-03-05T00:46:06.545Z,4.80
2019-03-05T00:51:44.615Z,4.90
2019-03-05T00:57:06.198Z,4.90
2019-03-05T01:02:22.000Z,4.90
2019-03-05T01:07:29.297Z,5.00
2019-03-05T01:12:32.890Z,4.90
2019-03-05T01:17:36.526Z,5.00
2019-03-05T01:22:40.281Z,5.00
2019-03-05T01:27:44.562Z,4.80
2019-03-05T01:32:50.017Z,4.80
2019-03-05T01:37:53.691Z,4.20
2019-03-05T01:42:58.165Z,4.00
2019-03-05T01:48:01.852Z,4.20
2019-03-05T01:53:05.742Z,4.30
2019-03-05T01:58:09.499Z,4.50
2019-03-05T02:03:13.174Z,4.70
2019-03-05T02:08:16.832Z,4.90
2019-03-05T02:13:20.554Z,5.00
2019-03-05T02:18:26.299Z,5.10
2019-03-05T02:23:35.795Z,5.10
2019-03-05T02:28:51.510Z,5.10
2019-03-05T02:34:16.525Z,5.20
2019-03-05T02:39:41.343Z,5.30
2019-03-05T02:45:07.451Z,5.30
2019-03-05T02:50:45.733Z,5.20
2019-03-05T02:56:04.232Z,4.90
2019-03-05T03:01:25.499Z,4.70
2019-03-05T03:06:29.848Z,4.50
2019-03-05T03:11:33.535Z,4.20
2019-03-05T03:16:37.234Z,4.00
2019-03-05T03:21:40.855Z,4.00
2019-03-05T03:26:44.496Z,3.90
2019-03-05T03:31:48.136Z,4.20
2019-03-05T03:36:51.727Z,4.10
2019-03-05T03:41:55.345Z,4.20
2019-03-05T03:47:00.431Z,4.30
2019-03-05T03:52:04.029Z,4.30
2019-03-05T03:57:07.716Z,4.00
2019-03-05T04:02:11.427Z,4.00
2019-03-05T04:07:15.331Z,4.10
2019-03-05T04:12:18.929Z,4.10
2019-03-05T04:17:22.595Z,4.00
2019-03-05T04:22:26.305Z,4.30
2019-03-05T04:27:30.073Z,4.40
2019-03-05T04:32:33.722Z,4.50
2019-03-05T04:37:37.343Z,4.30
2019-03-05T04:42:41.067Z,4.10
2019-03-05T04:47:44.704Z,4.10
2019-03-05T04:52:48.385Z,4.10
2019-03-05T04:57:52.026Z,4.10
2019-03-05T05:02:58.360Z,3.90
2019-03-05T05:08:01.470Z,3.90
2019-03-05T05:13:05.148Z,3.80
2019-03-05T05:18:08.799Z,3.80
2019-03-05T05:23:12.838Z,3.80
2019-03-05T05:28:16.532Z,3.90
2019-03-05T05:33:20.239Z,3.90
2019-03-05T05:38:23.836Z,3.90
2019-03-05T05:43:30.078Z,4.00
2019-03-05T05:48:33.706Z,4.10
2019-03-05T05:53:37.327Z,4.10
2019-03-05T05:58:41.123Z,4.10
2019-03-05T06:03:44.734Z,4.20
2019-03-05T06:08:48.372Z,4.20
2019-03-05T06:13:52.191Z,4.20
2019-03-05T06:18:58.573Z,4.30
2019-03-05T06:24:02.187Z,4.30
2019-03-05T06:29:05.799Z,4.40
2019-03-05T06:34:09.418Z,4.40
2019-03-05T06:39:13.306Z,4.60
2019-03-05T06:44:17.527Z,4.70
2019-03-05T06:49:21.146Z,4.70
2019-03-05T06:54:24.803Z,5.00
2019-03-05T06:59:28.499Z,4.90
2019-03-05T07:04:32.216Z,4.90
2019-03-05T07:09:59.928Z,4.70
2019-03-05T07:15:24.929Z,4.70
2019-03-05T07:21:04.788Z,4.70
2019-03-05T07:26:08.419Z,4.90
2019-03-05T07:31:12.072Z,5.10
2019-03-05T07:36:15.882Z,5.40
2019-03-05T07:41:20.364Z,5.50
2019-03-05T07:46:24.102Z,5.50
2019-03-05T07:51:27.716Z,5.80
2019-03-05T07:56:31.415Z,6.00
2019-03-05T08:01:35.243Z,6.10
2019-03-05T08:06:39.221Z,6.40
2019-03-05T08:11:42.826Z,6.40
2019-03-05T08:16:46.458Z,6.60
2019-03-05T08:21:50.073Z,6.70
2019-03-05T08:26:53.710Z,7.00
2019-03-05T08:31:57.329Z,7.10
2019-03-05T08:37:00.940Z,7.20
2019-03-05T08:42:05.044Z,7.30
2019-03-05T08:47:08.615Z,7.60
2019-03-05T08:52:12.255Z,7.70
2019-03-05T08:57:15.882Z,8.30
2019-03-05T09:02:19.523Z,8.60
2019-03-05T09:07:23.238Z,8.30
2019-03-05T09:12:27.221Z,8.50
2019-03-05T09:17:30.918Z,8.90
2019-03-05T09:22:34.551Z,8.60
2019-03-05T09:27:38.234Z,8.20
2019-03-05T09:32:41.889Z,8.50
2019-03-05T09:37:47.093Z,9.00
2019-03-05T09:42:51.445Z,8.50
2019-03-05T09:47:55.142Z,8.70
2019-03-05T09:52:58.911Z,9.00
2019-03-05T09:58:08.049Z,8.90
2019-03-05T10:03:08.242Z,9.00
2019-03-05T10:08:11.872Z,9.00
2019-03-05T10:13:15.555Z,8.90
2019-03-05T10:18:19.288Z,9.00
2019-03-05T10:23:22.918Z,9.80
2019-03-05T10:28:27.775Z,9.80
2019-03-05T10:33:31.466Z,9.50
2019-03-05T10:38:35.147Z,9.60
2019-03-05T10:43:39.040Z,9.20
2019-03-05T10:48:43.043Z,9.10
2019-03-05T10:53:46.814Z,9.20
2019-03-05T10:58:50.457Z,9.60
2019-03-05T11:03:54.057Z,9.60
2019-03-05T11:08:57.872Z,9.70
2019-03-05T11:14:01.471Z,9.80
2019-03-05T11:19:05.571Z,10.50
2019-03-05T11:24:09.512Z,10.80
2019-03-05T11:29:13.133Z,10.80
2019-03-05T11:34:16.847Z,11.20
2019-03-05T11:39:20.562Z,11.70
2019-03-05T11:44:24.246Z,11.50
2019-03-05T11:49:28.095Z,11.20
2019-03-05T11:54:31.724Z,11.20
2019-03-05T11:59:35.353Z,10.60
2019-03-05T12:04:39.019Z,10.80
2019-03-05T12:09:42.686Z,10.60
2019-03-05T12:14:46.336Z,10.30
2019-03-05T12:19:50.048Z,10.20
2019-03-05T12:24:53.750Z,10.00
2019-03-05T12:29:57.409Z,10.10
2019-03-05T12:35:01.043Z,10.10
2019-03-05T12:40:06.202Z,10.10
2019-03-05T12:45:12.669Z,10.30
2019-03-05T12:50:18.895Z,10.40
2019-03-05T12:55:22.750Z,10.40
2019-03-05T13:00:37.473Z,10.30
2019-03-05T13:05:41.115Z,10.70
2019-03-05T13:10:47.365Z,11.10
2019-03-05T13:15:52.957Z,10.90
2019-03-05T13:21:03.508Z,11.00
2019-03-05T13:26:09.161Z,10.80
2019-03-05T13:31:12.994Z,10.70
2019-03-05T13:36:16.952Z,10.60
2019-03-05T13:41:20.631Z,10.40
2019-03-05T13:46:25.875Z,10.50
2019-03-05T13:51:38.545Z,10.50
2019-03-05T13:57:08.962Z,10.50
2019-03-05T14:02:14.448Z,10.60
2019-03-05T14:07:27.094Z,10.50
2019-03-05T14:12:30.870Z,10.70
2019-03-05T14:17:35.176Z,10.80
2019-03-05T14:22:39.140Z,10.70
2019-03-05T14:27:42.917Z,10.80
2019-03-05T14:32:46.768Z,10.80
2019-03-05T14:37:51.336Z,10.70
2019-03-05T14:42:55.004Z,10.80
2019-03-05T14:47:59.707Z,10.80
2019-03-05T14:53:03.406Z,10.80
2019-03-05T14:58:07.105Z,10.90
2019-03-05T15:03:12.027Z,10.90
2019-03-05T15:08:15.701Z,10.90
2019-03-05T15:13:20.139Z,11.00
2019-03-05T15:18:25.032Z,10.80
2019-03-05T15:23:28.730Z,10.80
2019-03-05T15:28:32.429Z,11.00
2019-03-05T15:33:36.242Z,11.00
2019-03-05T15:38:39.903Z,11.00
2019-03-05T15:43:43.545Z,11.10
2019-03-05T15:48:47.235Z,11.20
2019-03-05T15:53:50.947Z,11.30
2019-03-05T15:58:54.594Z,11.20
2019-03-05T16:03:58.409Z,11.20
2019-03-05T16:09:03.605Z,11.20
2019-03-05T16:14:07.282Z,11.10
2019-03-05T16:19:16.530Z,10.90
2019-03-05T16:24:17.967Z,11.00
2019-03-05T16:29:21.689Z,10.90
2019-03-05T16:34:28.330Z,10.90
2019-03-05T16:39:41.041Z,10.70
2019-03-05T16:44:49.287Z,10.70
2019-03-05T16:49:54.633Z,10.80
2019-03-05T16:54:59.970Z,10.70
2019-03-05T17:00:23.085Z,10.70
2019-03-05T17:05:44.821Z,10.40
2019-03-05T17:10:56.075Z,10.40
2019-03-05T17:15:59.785Z,10.30
2019-03-05T17:21:03.575Z,10.20
2019-03-05T17:26:07.295Z,10.20
2019-03-05T17:31:11.351Z,10.50
2019-03-05T17:36:14.958Z,10.70
2019-03-05T17:41:18.591Z,10.70
2019-03-05T17:46:22.351Z,10.60
2019-03-05T17:51:26.090Z,10.90
2019-03-05T17:56:29.793Z,11.20
2019-03-05T18:01:33.495Z,11.30
2019-03-05T18:06:37.509Z,11.00
2019-03-05T18:11:41.954Z,10.80
2019-03-05T18:16:45.681Z,10.70
2019-03-05T18:21:49.439Z,10.50
2019-03-05T18:26:53.162Z,10.20
2019-03-05T18:31:56.820Z,10.30
2019-03-05T18:37:00.550Z,10.50
2019-03-05T18:42:04.262Z,10.30
2019-03-05T18:47:07.999Z,10.20
2019-03-05T18:52:11.721Z,10.20
2019-03-05T18:57:15.458Z,10.20
2019-03-05T19:02:19.094Z,10.20
2019-03-05T19:07:22.810Z,10.10
2019-03-05T19:12:26.839Z,10.00
2019-03-05T19:17:32.501Z,10.00
2019-03-05T19:22:36.116Z,10.00
2019-03-05T19:27:39.765Z,10.10
2019-03-05T19:32:43.480Z,9.80
2019-03-05T19:37:47.173Z,9.70
2019-03-05T19:42:50.974Z,10.00
2019-03-05T19:47:55.070Z,10.10
2019-03-05T19:52:59.140Z,10.10
2019-03-05T19:58:09.115Z,10.00
2019-03-05T20:03:12.988Z,10.40
2019-03-05T20:08:16.768Z,10.30
2019-03-05T20:13:20.387Z,9.90
2019-03-05T20:18:24.034Z,9.70
2019-03-05T20:23:27.943Z,9.80
2019-03-05T20:28:31.829Z,9.70
2019-03-05T20:33:35.521Z,9.70
2019-03-05T20:38:39.248Z,9.80
2019-03-05T20:43:43.247Z,9.60
2019-03-05T20:48:46.931Z,9.20
2019-03-05T20:53:50.545Z,9.30
2019-03-05T20:58:57.464Z,9.30
2019-03-05T21:04:01.385Z,9.30
2019-03-05T21:09:07.820Z,9.80
2019-03-05T21:14:11.455Z,10.00
2019-03-05T21:19:15.250Z,9.10
2019-03-05T21:24:20.111Z,9.10
2019-03-05T21:29:23.812Z,9.00
2019-03-05T21:34:27.434Z,9.20
2019-03-05T21:39:31.222Z,8.90
2019-03-05T21:44:34.913Z,8.80
2019-03-05T21:49:38.502Z,9.10
2019-03-05T21:54:42.291Z,9.40
2019-03-05T21:59:48.886Z,9.70
2019-03-05T22:04:52.787Z,9.70
2019-03-05T22:09:56.419Z,9.70
2019-03-05T22:15:00.037Z,9.60
2019-03-05T22:20:03.907Z,9.70
2019-03-05T22:25:19.121Z,9.40
2019-03-05T22:30:34.415Z,9.30
2019-03-05T22:35:38.071Z,9.20
2019-03-05T22:40:41.767Z,9.00
2019-03-05T22:45:45.398Z,8.90
2019-03-05T22:50:49.154Z,8.80
2019-03-05T22:55:53.121Z,8.50
2019-03-05T23:01:09.882Z,8.40
2019-03-05T23:06:14.399Z,8.10
2019-03-05T23:11:18.300Z,8.00
2019-03-05T23:16:22.893Z,7.80
2019-03-05T23:21:26.848Z,7.50
2019-03-05T23:26:30.653Z,7.30
2019-03-05T23:31:34.494Z,7.10
2019-03-05T23:36:41.149Z,6.80
2019-03-05T23:41:44.669Z,6.80
2019-03-05T23:46:48.601Z,6.70
2019-03-05T23:51:52.282Z,6.40
2019-03-05T23:56:57.929Z,6.30
